Time;durP1;ratioP1;P1;durP2;ratioP2;P2;SDS_P1;SDS_P2;PMS_P1;PMS_P2;Temp;Humidity;BMP_temperature;BMP_pressure;BME280_temperature;BME280_humidity;BME280_pressure;Samples;Min_cycle;Max_cycle;Signal;HPM_P1;HPM_P2
2022/09/29 00:00:13;;;;;;;5.60;2.92;;;12.80;87.50;;;;;;5054148;28;20049;-70
2022/09/29 00:02:39;;;;;;;4.68;3.00;;;12.80;87.60;;;;;;5053595;28;20558;-70
2022/09/29 00:05:05;;;;;;;4.03;3.05;;;12.80;87.70;;;;;;5052974;28;20033;-70
2022/09/29 00:07:31;;;;;;;5.10;2.40;;;12.80;87.90;;;;;;5053570;28;20059;-70
2022/09/29 00:09:57;;;;;;;4.20;2.50;;;12.70;87.90;;;;;;5052819;28;20033;-70
2022/09/29 00:12:23;;;;;;;4.03;2.50;;;12.70;88.10;;;;;;5053855;28;20377;-70
2022/09/29 00:14:49;;;;;;;7.75;2.53;;;12.70;88.20;;;;;;5053420;28;20071;-70
2022/09/29 00:17:15;;;;;;;3.58;2.45;;;12.70;88.20;;;;;;5052755;28;20515;-70
2022/09/29 00:19:41;;;;;;;4.93;2.38;;;12.70;88.30;;;;;;5053481;28;20124;-70
2022/09/29 00:22:06;;;;;;;2.92;2.00;;;12.70;88.30;;;;;;5053404;28;20029;-70
2022/09/29 00:24:33;;;;;;;3.28;2.10;;;12.70;88.30;;;;;;5052628;28;20369;-70
2022/09/29 00:26:59;;;;;;;2.75;2.10;;;12.60;88.30;;;;;;5053717;28;20102;-70
2022/09/29 00:29:25;;;;;;;4.53;1.92;;;12.70;88.40;;;;;;5053492;28;20037;-70
2022/09/29 00:31:51;;;;;;;3.40;2.20;;;12.60;88.40;;;;;;5052620;28;20074;-70
2022/09/29 00:34:17;;;;;;;3.22;1.90;;;12.60;88.50;;;;;;5053129;28;20479;-70
2022/09/29 00:36:42;;;;;;;3.15;2.10;;;12.60;88.70;;;;;;5053340;28;20025;-70
2022/09/29 00:39:08;;;;;;;3.90;2.10;;;12.50;88.70;;;;;;5052388;28;20506;-70
2022/09/29 00:41:36;;;;;;;3.05;2.00;;;12.50;88.90;;;;;;5053271;28;20086;-70
2022/09/29 00:44:02;;;;;;;4.65;2.17;;;12.40;88.90;;;;;;5053110;28;20468;-70
2022/09/29 00:46:34;;;;;;;2.38;1.70;;;12.40;88.90;;;;;;5056281;28;20032;-70
2022/09/29 00:49:13;;;;;;;3.42;2.22;;;12.50;89.00;;;;;;5057438;28;20042;-70
2022/09/29 00:51:42;;;;;;;2.03;1.60;;;12.50;88.90;;;;;;5057304;28;20033;-70
2022/09/29 00:54:09;;;;;;;2.65;1.85;;;12.40;88.90;;;;;;5056238;28;20373;-70
2022/09/29 00:56:40;;;;;;;3.10;2.08;;;12.40;88.90;;;;;;5056939;28;20033;-70
2022/09/29 00:59:15;;;;;;;1.90;1.65;;;12.40;88.90;;;;;;5056994;28;20083;-70
2022/09/29 01:01:41;;;;;;;2.70;2.10;;;12.40;89.00;;;;;;5056992;28;20086;-70
2022/09/29 01:04:14;;;;;;;2.95;2.17;;;12.40;89.00;;;;;;5057058;28;20028;-70
2022/09/29 01:06:52;;;;;;;2.40;1.92;;;12.40;89.00;;;;;;5056305;28;20029;-70
2022/09/29 01:09:29;;;;;;;3.95;2.47;;;12.30;89.00;;;;;;5057015;28;20033;-70
2022/09/29 01:11:59;;;;;;;5.15;1.98;;;12.30;89.00;;;;;;5056918;28;20033;-70
2022/09/29 01:14:27;;;;;;;1.98;1.77;;;12.30;89.00;;;;;;5056008;28;20029;-70
2022/09/29 01:16:53;;;;;;;4.35;2.30;;;12.30;89.00;;;;;;5056691;28;20041;-70
2022/09/29 01:19:51;;;;;;;2.72;1.85;;;12.30;89.00;;;;;;5056672;28;20041;-70
2022/09/29 01:22:47;;;;;;;4.25;2.10;;;12.30;89.10;;;;;;5055829;28;20033;-70
2022/09/29 01:25:36;;;;;;;3.10;2.20;;;12.20;88.90;;;;;;5056310;28;20042;-70
2022/09/29 01:28:26;;;;;;;4.03;2.42;;;12.20;88.90;;;;;;5055878;28;20143;-70
2022/09/29 01:31:18;;;;;;;3.47;2.47;;;12.20;88.90;;;;;;5056485;28;20040;-70
2022/09/29 01:34:05;;;;;;;9.85;2.10;;;12.20;88.90;;;;;;5056259;28;20490;-70
2022/09/29 01:36:47;;;;;;;14.07;2.20;;;12.10;88.80;;;;;;5055717;28;20029;-70
2022/09/29 01:39:38;;;;;;;7.97;2.60;;;12.10;88.90;;;;;;5056400;28;20041;-70
2022/09/29 01:42:24;;;;;;;11.75;2.55;;;12.10;89.00;;;;;;5055816;28;20475;-70
2022/09/29 01:45:07;;;;;;;25.73;2.38;;;12.10;89.00;;;;;;5056331;28;20037;-70
2022/09/29 01:47:41;;;;;;;27.55;2.53;;;12.10;89.00;;;;;;5056192;28;20392;-70
2022/09/29 01:50:24;;;;;;;22.58;3.38;;;12.00;89.00;;;;;;5055374;28;20044;-71
2022/09/29 01:52:56;;;;;;;12.10;2.55;;;12.00;89.00;;;;;;5056076;28;20086;-69
2022/09/29 01:55:25;;;;;;;7.13;2.65;;;12.00;89.00;;;;;;5056184;28;20436;-70
2022/09/29 01:57:56;;;;;;;10.98;2.60;;;12.00;89.10;;;;;;5056021;28;20032;-70
2022/09/29 02:00:30;;;;;;;12.23;2.70;;;11.90;89.00;;;;;;5054614;28;20036;-70
2022/09/29 02:03:16;;;;;;;14.82;2.47;;;12.00;89.00;;;;;;5055278;28;20048;-70
2022/09/29 02:05:50;;;;;;;12.65;2.15;;;12.00;89.00;;;;;;5055977;28;20112;-70
2022/09/29 02:08:22;;;;;;;3.53;2.35;;;11.90;88.90;;;;;;5055942;28;20395;-70
2022/09/29 02:10:51;;;;;;;28.45;2.67;;;11.90;88.90;;;;;;5054843;28;20448;-70
2022/09/29 02:13:18;;;;;;;4.03;2.40;;;11.90;88.90;;;;;;5055562;28;20090;-70
2022/09/29 02:15:47;;;;;;;12.57;2.38;;;11.90;88.80;;;;;;5055505;28;20043;-70
2022/09/29 02:18:17;;;;;;;27.40;2.50;;;11.80;88.70;;;;;;5054880;28;20074;-70
2022/09/29 02:20:45;;;;;;;23.73;2.90;;;11.80;88.60;;;;;;5055577;28;20040;-70
2022/09/29 02:23:10;;;;;;;33.58;2.50;;;11.80;88.70;;;;;;5055385;28;20036;-70
2022/09/29 02:25:38;;;;;;;10.32;2.22;;;11.80;88.70;;;;;;5054499;28;20476;-70
2022/09/29 02:28:06;;;;;;;115.55;3.80;;;11.70;88.60;;;;;;5055503;28;20036;-70
2022/09/29 02:30:32;;;;;;;55.25;2.97;;;11.80;88.70;;;;;;5055417;28;20028;-70
2022/09/29 02:32:58;;;;;;;68.43;2.97;;;11.70;88.60;;;;;;5054980;28;20094;-70
2022/09/29 02:35:34;;;;;;;57.88;2.58;;;11.70;88.70;;;;;;5055185;28;20032;-70
2022/09/29 02:38:10;;;;;;;23.50;2.20;;;11.70;88.70;;;;;;5054322;28;20464;-70
2022/09/29 02:40:42;;;;;;;48.35;2.65;;;11.60;88.70;;;;;;5055342;28;20435;-70
2022/09/29 02:43:28;;;;;;;41.67;2.50;;;11.60;88.70;;;;;;5055091;28;20361;-70
2022/09/29 02:46:19;;;;;;;21.58;2.25;;;11.60;88.60;;;;;;5054298;28;20024;-70
2022/09/29 02:49:16;;;;;;;13.07;2.30;;;11.60;88.60;;;;;;5055167;28;20033;-70
2022/09/29 02:52:16;;;;;;;6.15;2.40;;;11.60;88.70;;;;;;5054345;28;20072;-70
2022/09/29 02:54:51;;;;;;;29.20;2.60;;;11.50;88.70;;;;;;5054645;28;20454;-70
2022/09/29 02:57:25;;;;;;;39.30;2.60;;;11.50;88.60;;;;;;5054962;28;20033;-71
2022/09/29 02:59:54;;;;;;;6.97;2.20;;;11.50;88.70;;;;;;5053835;28;20102;-70
2022/09/29 03:02:26;;;;;;;8.05;2.47;;;11.50;88.70;;;;;;5054692;28;20048;-70
2022/09/29 03:04:52;;;;;;;7.65;2.50;;;11.50;88.80;;;;;;5054665;28;20033;-70
2022/09/29 03:07:19;;;;;;;14.85;2.60;;;11.50;88.80;;;;;;5053316;28;20033;-70
2022/09/29 03:09:45;;;;;;;4.15;2.45;;;11.50;88.90;;;;;;5054725;28;20037;-70
2022/09/29 03:12:11;;;;;;;12.80;2.42;;;11.40;88.80;;;;;;5054911;28;20536;-70
2022/09/29 03:14:37;;;;;;;5.57;2.63;;;11.50;88.80;;;;;;5053873;28;20124;-70
2022/09/29 03:17:02;;;;;;;24.00;2.50;;;11.40;88.80;;;;;;5054382;28;20037;-70
2022/09/29 03:19:28;;;;;;;14.73;2.30;;;11.40;88.90;;;;;;5054415;28;20048;-70
2022/09/29 03:21:54;;;;;;;11.27;2.50;;;11.40;88.90;;;;;;5053444;28;20079;-70
2022/09/29 03:24:20;;;;;;;9.23;2.67;;;11.40;88.90;;;;;;5054224;28;20033;-70
2022/09/29 03:26:45;;;;;;;15.18;2.75;;;11.30;88.90;;;;;;5054123;28;20035;-70
2022/09/29 03:29:11;;;;;;;8.93;2.33;;;11.40;89.00;;;;;;5053539;28;20037;-70
2022/09/29 03:31:39;;;;;;;6.15;2.45;;;11.30;89.00;;;;;;5054273;28;20053;-70
2022/09/29 03:34:04;;;;;;;47.20;3.28;;;11.30;89.00;;;;;;5053655;28;20064;-70
2022/09/29 03:36:30;;;;;;;55.47;3.33;;;11.30;89.00;;;;;;5054098;28;20064;-70
2022/09/29 03:38:56;;;;;;;59.78;3.90;;;11.30;89.00;;;;;;5054158;28;20029;-70
2022/09/29 03:41:21;;;;;;;39.20;3.00;;;11.30;89.10;;;;;;5053130;28;20029;-70
2022/09/29 03:43:47;;;;;;;30.95;2.75;;;11.30;89.10;;;;;;5054383;28;20116;-70
2022/09/29 03:46:12;;;;;;;11.90;2.25;;;11.30;89.10;;;;;;5054019;28;20070;-70
2022/09/29 03:48:39;;;;;;;19.98;3.22;;;11.30;89.10;;;;;;5053260;28;20037;-70
2022/09/29 03:51:05;;;;;;;13.63;3.75;;;11.20;89.10;;;;;;5053811;28;20037;-70
2022/09/29 03:53:33;;;;;;;38.75;3.13;;;11.30;89.20;;;;;;5053720;28;20055;-70
2022/09/29 03:55:59;;;;;;;5.32;2.55;;;11.20;89.10;;;;;;5052999;28;20147;-70
2022/09/29 03:58:25;;;;;;;9.27;2.55;;;11.20;89.00;;;;;;5053669;28;20056;-70
2022/09/29 04:00:50;;;;;;;15.27;2.80;;;11.20;89.00;;;;;;5053788;28;20036;-70
2022/09/29 04:03:19;;;;;;;19.60;2.65;;;11.20;89.00;;;;;;5052913;28;20036;-70
2022/09/29 04:05:49;;;;;;;7.63;2.47;;;11.10;89.00;;;;;;5053566;28;20029;-70
2022/09/29 04:08:15;;;;;;;15.45;2.50;;;11.10;89.00;;;;;;5053724;28;20029;-71
2022/09/29 04:10:47;;;;;;;36.45;3.35;;;11.10;89.10;;;;;;5052708;28;20029;-70
2022/09/29 04:13:13;;;;;;;10.77;2.63;;;11.00;89.10;;;;;;5053674;28;20021;-70
2022/09/29 04:15:39;;;;;;;19.27;2.38;;;11.00;89.20;;;;;;5053473;28;20036;-70
2022/09/29 04:18:05;;;;;;;34.45;3.13;;;11.00;89.20;;;;;;5052473;28;20079;-70
2022/09/29 04:20:31;;;;;;;50.55;3.53;;;11.00;89.40;;;;;;5052592;28;20549;-70
2022/09/29 04:22:58;;;;;;;95.25;4.55;;;10.90;89.40;;;;;;5053477;28;20414;-70
2022/09/29 04:25:23;;;;;;;61.00;3.08;;;10.90;89.50;;;;;;5052757;28;20032;-70
2022/09/29 04:27:49;;;;;;;33.42;2.92;;;10.80;89.50;;;;;;5053314;28;20047;-70
2022/09/29 04:30:15;;;;;;;76.43;3.10;;;10.80;89.60;;;;;;5052568;28;20037;-70
2022/09/29 04:32:41;;;;;;;29.90;2.78;;;10.90;89.70;;;;;;5053159;28;20021;-70
2022/09/29 04:35:07;;;;;;;65.82;3.55;;;10.80;89.60;;;;;;5053220;28;20472;-70
2022/09/29 04:37:33;;;;;;;6.35;2.28;;;10.80;89.50;;;;;;5052735;28;20029;-70
2022/09/29 04:39:59;;;;;;;43.88;2.92;;;10.80;89.40;;;;;;5053153;28;20059;-70
2022/09/29 04:42:25;;;;;;;4.68;2.40;;;10.80;89.40;;;;;;5053122;28;20025;-70
2022/09/29 04:44:50;;;;;;;10.35;2.40;;;10.80;89.30;;;;;;5052370;28;20115;-70
2022/09/29 04:47:16;;;;;;;7.57;2.70;;;10.80;89.20;;;;;;5053116;28;20048;-69
2022/09/29 04:49:42;;;;;;;12.02;2.40;;;10.80;89.20;;;;;;5053314;28;20028;-70
2022/09/29 04:52:10;;;;;;;4.38;2.65;;;10.80;89.20;;;;;;5052320;28;20052;-70
2022/09/29 04:54:36;;;;;;;6.95;2.60;;;10.80;89.20;;;;;;5052877;28;20497;-70
2022/09/29 04:57:01;;;;;;;3.47;2.45;;;10.70;89.10;;;;;;5053128;28;20029;-70
2022/09/29 04:59:27;;;;;;;4.63;2.88;;;10.70;89.00;;;;;;5052196;28;20069;-70
2022/09/29 05:01:56;;;;;;;3.95;2.30;;;10.80;89.00;;;;;;5052979;28;20040;-70
2022/09/29 05:04:21;;;;;;;12.93;2.80;;;10.80;89.00;;;;;;5052829;28;20391;-70
2022/09/29 05:06:47;;;;;;;22.05;2.63;;;10.70;88.90;;;;;;5052249;28;20039;-70
2022/09/29 05:09:13;;;;;;;28.20;2.95;;;10.70;88.80;;;;;;5052951;28;20028;-70
2022/09/29 05:11:39;;;;;;;26.35;2.85;;;10.70;88.90;;;;;;5052975;28;20138;-70
2022/09/29 05:14:04;;;;;;;14.60;2.20;;;10.60;88.80;;;;;;5052478;28;20399;-70
2022/09/29 05:16:33;;;;;;;28.08;2.78;;;10.70;88.90;;;;;;5053316;28;20035;-70
2022/09/29 05:18:59;;;;;;;33.05;2.60;;;10.60;88.80;;;;;;5052590;28;20052;-70
2022/09/29 05:21:24;;;;;;;16.50;2.92;;;10.60;88.80;;;;;;5052370;28;20074;-70
2022/09/29 05:23:50;;;;;;;37.65;2.80;;;10.60;88.80;;;;;;5053002;28;20029;-70
2022/09/29 05:26:16;;;;;;;33.70;3.17;;;10.60;88.80;;;;;;5052976;28;20076;-70
2022/09/29 05:28:44;;;;;;;12.10;2.88;;;10.50;88.70;;;;;;5052153;28;20025;-70
2022/09/29 05:31:10;;;;;;;28.10;2.95;;;10.60;88.80;;;;;;5054296;28;20048;-70
2022/09/29 05:33:37;;;;;;;57.88;3.47;;;10.60;88.70;;;;;;5055820;28;20033;-69
2022/09/29 05:36:07;;;;;;;31.85;3.17;;;10.60;88.80;;;;;;5056323;28;20083;-70
2022/09/29 05:38:36;;;;;;;44.17;3.50;;;10.60;88.80;;;;;;5056364;28;20116;-70
2022/09/29 05:41:08;;;;;;;15.23;2.97;;;10.60;88.80;;;;;;5055621;28;20036;-70
2022/09/29 05:43:34;;;;;;;46.90;3.15;;;10.50;88.80;;;;;;5056027;28;20021;-70
2022/09/29 05:46:05;;;;;;;40.95;3.03;;;10.50;88.90;;;;;;5057035;28;20033;-70
2022/09/29 05:48:31;;;;;;;15.30;2.53;;;10.50;88.90;;;;;;5055722;28;20344;-70
2022/09/29 05:50:57;;;;;;;45.40;2.97;;;10.50;88.80;;;;;;5056227;28;20043;-70
2022/09/29 05:53:23;;;;;;;4.40;2.92;;;10.50;88.80;;;;;;5056162;28;20156;-70
2022/09/29 05:55:49;;;;;;;7.25;2.80;;;10.50;88.90;;;;;;5055319;28;20128;-70
2022/09/29 05:58:14;;;;;;;24.48;2.85;;;10.50;89.00;;;;;;5055829;28;20051;-70
2022/09/29 06:00:40;;;;;;;20.63;2.65;;;10.50;89.00;;;;;;5056212;28;20033;-70
2022/09/29 06:03:06;;;;;;;6.50;2.83;;;10.40;89.10;;;;;;5055212;28;20029;-70
2022/09/29 06:05:31;;;;;;;7.22;2.90;;;10.40;89.20;;;;;;5055943;28;20040;-70
2022/09/29 06:07:57;;;;;;;5.00;3.03;;;10.40;89.30;;;;;;5055920;28;20068;-70
2022/09/29 06:10:23;;;;;;;4.07;3.05;;;10.40;89.40;;;;;;5054894;28;20052;-70
2022/09/29 06:12:49;;;;;;;4.80;3.28;;;10.40;89.40;;;;;;5055795;28;20071;-70
2022/09/29 06:15:14;;;;;;;5.50;3.47;;;10.50;89.50;;;;;;5055497;28;20048;-70
2022/09/29 06:17:40;;;;;;;5.78;4.05;;;10.40;89.60;;;;;;5054847;28;20064;-69
2022/09/29 06:20:06;;;;;;;7.47;4.15;;;10.40;89.60;;;;;;5055556;28;20048;-68
2022/09/29 06:22:32;;;;;;;9.55;4.20;;;10.40;89.70;;;;;;5055315;28;20029;-67
2022/09/29 06:24:58;;;;;;;5.30;3.40;;;10.40;89.70;;;;;;5054680;28;20029;-67
2022/09/29 06:27:24;;;;;;;4.72;3.42;;;10.40;89.70;;;;;;5055445;28;20388;-67
2022/09/29 06:29:50;;;;;;;5.90;3.70;;;10.40;89.80;;;;;;5054752;28;20080;-68
2022/09/29 06:32:15;;;;;;;4.18;3.17;;;10.40;89.80;;;;;;5055481;28;20064;-67
2022/09/29 06:37:35;;;;;;;6.90;3.33;;;10.40;90.00;;;;;;5054629;28;20108;-69
2022/09/29 06:40:07;;;;;;;4.88;3.45;;;10.40;90.00;;;;;;5055312;28;20045;-68
2022/09/29 06:42:34;;;;;;;5.13;3.50;;;10.40;90.30;;;;;;5054141;28;20081;-68
2022/09/29 06:45:01;;;;;;;5.15;3.50;;;10.40;90.10;;;;;;5054343;28;20037;-68
2022/09/29 06:47:26;;;;;;;5.57;3.42;;;10.40;90.20;;;;;;5055005;28;20025;-68
2022/09/29 06:49:52;;;;;;;5.45;3.63;;;10.40;90.20;;;;;;5055062;28;20345;-68
2022/09/29 06:52:18;;;;;;;5.75;3.55;;;10.40;90.30;;;;;;5054015;28;20029;-72
2022/09/29 06:54:43;;;;;;;6.22;4.15;;;10.40;90.40;;;;;;5054634;28;20456;-69
2022/09/29 06:57:09;;;;;;;8.88;3.50;;;10.40;90.50;;;;;;5055081;28;20112;-69
2022/09/29 06:59:35;;;;;;;4.22;3.25;;;10.40;90.50;;;;;;5054013;28;20040;-68
2022/09/29 07:02:01;;;;;;;5.00;3.85;;;10.40;90.80;;;;;;5055144;28;20071;-70
2022/09/29 07:04:28;;;;;;;9.25;4.13;;;10.50;90.70;;;;;;5054419;28;20045;-69
2022/09/29 07:06:53;;;;;;;4.97;3.55;;;10.50;90.70;;;;;;5053480;28;20099;-70
2022/09/29 07:09:19;;;;;;;6.80;4.30;;;10.40;90.70;;;;;;5053748;28;20472;-69
2022/09/29 07:11:50;;;;;;;6.15;3.92;;;10.50;90.80;;;;;;5054607;28;20099;-68
2022/09/29 07:14:18;;;;;;;7.57;3.92;;;10.50;90.80;;;;;;5053557;28;20388;-69
2022/09/29 07:16:47;;;;;;;8.13;4.00;;;10.50;90.80;;;;;;5054521;28;20055;-69
2022/09/29 07:19:13;;;;;;;8.18;4.20;;;10.60;90.90;;;;;;5053681;28;20037;-72
2022/09/29 07:21:38;;;;;;;5.57;3.42;;;10.50;90.80;;;;;;5054537;28;20032;-69
2022/09/29 07:24:04;;;;;;;5.88;3.92;;;10.50;90.70;;;;;;5054430;28;20104;-69
2022/09/29 07:26:30;;;;;;;9.43;4.05;;;10.50;90.80;;;;;;5053373;28;20460;-69
2022/09/29 07:28:56;;;;;;;6.53;3.10;;;10.60;90.90;;;;;;5054229;28;20032;-68
2022/09/29 07:31:22;;;;;;;5.88;3.88;;;10.50;90.90;;;;;;5054289;28;20032;-68
2022/09/29 07:33:49;;;;;;;5.75;3.80;;;10.60;90.80;;;;;;5053893;28;20384;-69
2022/09/29 07:36:17;;;;;;;7.35;3.85;;;10.60;90.90;;;;;;5054038;28;20455;-68
2022/09/29 07:38:48;;;;;;;6.57;4.10;;;10.60;90.70;;;;;;5053975;28;20029;-68
2022/09/29 07:41:14;;;;;;;9.15;4.50;;;10.60;90.40;;;;;;5053684;28;20053;-68
2022/09/29 07:43:40;;;;;;;9.13;4.30;;;10.60;90.20;;;;;;5054177;28;20033;-68
2022/09/29 07:46:07;;;;;;;7.20;3.92;;;10.50;90.20;;;;;;5053934;28;20079;-69
2022/09/29 07:48:34;;;;;;;14.02;5.10;;;10.50;90.10;;;;;;5053108;28;20440;-68
2022/09/29 07:51:01;;;;;;;10.63;5.10;;;10.50;90.00;;;;;;5053752;28;20087;-68
2022/09/29 07:53:27;;;;;;;10.27;4.43;;;10.50;90.10;;;;;;5053598;28;20057;-70
2022/09/29 07:55:53;;;;;;;26.40;6.13;;;10.40;90.20;;;;;;5053021;28;20033;-70
2022/09/29 07:58:19;;;;;;;16.88;5.13;;;10.40;90.20;;;;;;5053631;28;20044;-70
2022/09/29 08:00:44;;;;;;;21.83;4.72;;;10.50;90.30;;;;;;5053621;28;20538;-70
2022/09/29 08:03:10;;;;;;;25.27;6.35;;;10.40;90.30;;;;;;5052709;28;20025;-72
2022/09/29 08:05:36;;;;;;;39.65;5.90;;;10.50;90.50;;;;;;5053541;28;20357;-70
2022/09/29 08:08:03;;;;;;;28.88;6.78;;;10.50;90.50;;;;;;5053729;28;20025;-69
2022/09/29 08:10:32;;;;;;;12.57;4.43;;;10.50;90.70;;;;;;5052880;28;20043;-69
2022/09/29 08:12:58;;;;;;;6.57;3.42;;;10.50;90.60;;;;;;5053031;28;20086;-71
2022/09/29 08:15:25;;;;;;;12.38;5.88;;;10.50;90.70;;;;;;5052311;28;20080;-71
2022/09/29 08:17:53;;;;;;;8.57;4.82;;;10.50;90.80;;;;;;5053410;28;20056;-71
2022/09/29 08:20:23;;;;;;;14.20;6.60;;;10.50;91.00;;;;;;5053263;28;20053;-72
2022/09/29 08:22:49;;;;;;;9.00;3.30;;;10.50;91.10;;;;;;5052685;28;20025;-71
2022/09/29 08:25:19;;;;;;;8.63;3.22;;;10.60;91.10;;;;;;5053350;28;20111;-70
2022/09/29 08:27:44;;;;;;;13.15;6.35;;;10.60;91.10;;;;;;5053521;28;20025;-68
2022/09/29 08:30:11;;;;;;;6.32;3.22;;;10.70;91.20;;;;;;5052523;28;20159;-69
2022/09/29 08:32:37;;;;;;;12.80;6.25;;;10.70;91.20;;;;;;5053370;28;20033;-69
2022/09/29 08:35:04;;;;;;;19.50;8.55;;;10.70;91.30;;;;;;5053478;28;20032;-74
2022/09/29 08:37:30;;;;;;;21.02;9.13;;;10.80;91.50;;;;;;5052662;28;20033;-70
2022/09/29 08:39:56;;;;;;;19.85;9.13;;;10.80;91.70;;;;;;5052591;28;20480;-71
2022/09/29 08:42:33;;;;;;;20.10;10.40;;;10.90;92.10;;;;;;5053132;28;20025;-71
2022/09/29 08:45:04;;;;;;;14.27;7.47;;;10.90;92.00;;;;;;5052653;28;20086;-69
2022/09/29 08:47:35;;;;;;;19.02;10.20;;;11.00;92.00;;;;;;5053094;28;20472;-70
2022/09/29 08:50:13;;;;;;;21.23;11.70;;;11.10;92.20;;;;;;5053247;28;20063;-70
2022/09/29 08:52:45;;;;;;;14.85;8.05;;;11.10;92.40;;;;;;5052491;28;20443;-69
2022/09/29 08:55:17;;;;;;;14.77;7.72;;;11.20;92.40;;;;;;5052836;28;20111;-70
2022/09/29 08:57:46;;;;;;;17.67;9.52;;;11.30;92.10;;;;;;5052187;28;20034;-69
2022/09/29 09:00:18;;;;;;;19.85;10.38;;;11.40;92.30;;;;;;5052973;28;20033;-69
2022/09/29 09:03:17;;;;;;;12.45;6.60;;;11.40;92.80;;;;;;5052908;28;20067;-71
2022/09/29 09:06:02;;;;;;;21.83;10.63;;;11.50;92.60;;;;;;5052809;28;20064;-69
2022/09/29 09:08:34;;;;;;;13.38;6.35;;;11.60;92.80;;;;;;5056800;28;20553;-71
2022/09/29 09:11:31;;;;;;;17.30;8.68;;;11.70;92.20;;;;;;5056994;28;20037;-70
2022/09/29 09:14:17;;;;;;;8.68;3.60;;;11.70;92.30;;;;;;5056750;28;20036;-71
2022/09/29 09:17:14;;;;;;;15.60;6.78;;;11.80;91.90;;;;;;5056809;28;20029;-68
2022/09/29 09:19:48;;;;;;;6.88;3.90;;;11.70;92.10;;;;;;5055912;28;20040;-71
2022/09/29 09:22:17;;;;;;;13.60;7.30;;;11.80;91.90;;;;;;5056325;28;20028;-71
2022/09/29 09:25:11;;;;;;;6.05;3.15;;;11.80;92.20;;;;;;5055358;28;20456;-70
2022/09/29 09:27:39;;;;;;;;;;;11.80;92.10;;;;;;5048295;28;20045;-71
2022/09/29 09:30:11;;;;;;;8.85;5.38;;;11.90;92.00;;;;;;5056529;28;20252;-71
2022/09/29 09:32:45;;;;;;;5.53;2.72;;;11.90;92.10;;;;;;5056440;28;20029;-71
2022/09/29 09:35:25;;;;;;;;;;;11.90;92.20;;;;;;5056776;28;20041;-71
2022/09/29 09:37:53;;;;;;;9.57;5.85;;;12.00;92.20;;;;;;5056481;28;19916;-71
2022/09/29 09:40:35;;;;;;;12.73;4.93;;;12.00;92.50;;;;;;5055415;28;20051;-70
2022/09/29 09:43:32;;;;;;;5.47;3.38;;;12.00;92.90;;;;;;5056297;28;20029;-71
2022/09/29 09:46:19;;;;;;;6.93;3.30;;;12.10;92.90;;;;;;5051660;28;20037;-68
2022/09/29 09:49:10;;;;;;;1.98;1.55;;;12.10;93.00;;;;;;5055484;28;20450;-68
2022/09/29 09:51:52;;;;;;;15.57;3.65;;;12.20;93.30;;;;;;5056311;28;20041;-68
2022/09/29 09:54:32;;;;;;;10.25;4.65;;;12.20;93.40;;;;;;5055175;28;20116;-68
2022/09/29 09:57:16;;;;;;;11.40;5.80;;;12.30;93.70;;;;;;5056017;28;20124;-68
2022/09/29 09:59:47;;;;;;;6.93;3.55;;;12.30;93.70;;;;;;5055837;28;20047;-69
2022/09/29 10:02:19;;;;;;;9.27;3.75;;;12.40;93.70;;;;;;5055888;28;20043;-68
2022/09/29 10:04:49;;;;;;;4.85;1.90;;;12.40;93.90;;;;;;5055992;28;20033;-69
2022/09/29 10:07:16;;;;;;;0.90;0.85;;;12.40;93.80;;;;;;5055952;28;20024;-68
2022/09/29 10:09:42;;;;;;;6.65;3.67;;;12.50;94.10;;;;;;5054922;28;20051;-68
2022/09/29 10:12:18;;;;;;;4.47;2.42;;;12.60;94.20;;;;;;5055733;28;20029;-68
2022/09/29 10:14:53;;;;;;;2.35;1.50;;;12.60;94.10;;;;;;5055882;28;20041;-69
2022/09/29 10:17:26;;;;;;;4.90;3.00;;;12.70;94.10;;;;;;5054487;28;20065;-68
2022/09/29 10:20:03;;;;;;;11.70;5.83;;;12.80;94.30;;;;;;5055793;28;20171;-69
2022/09/29 10:22:29;;;;;;;5.53;2.83;;;12.80;94.50;;;;;;5054783;28;20474;-68
2022/09/29 10:25:07;;;;;;;2.33;1.38;;;12.90;94.40;;;;;;5055332;28;20107;-68
2022/09/29 10:27:33;;;;;;;2.05;1.67;;;12.90;94.40;;;;;;5055543;28;20035;-69
2022/09/29 10:30:02;;;;;;;1.08;0.82;;;13.00;94.40;;;;;;5055022;28;20041;-68
2022/09/29 10:32:36;;;;;;;2.92;1.98;;;13.00;94.40;;;;;;5055343;28;20033;-69
2022/09/29 10:35:16;;;;;;;1.70;1.08;;;13.00;94.50;;;;;;5057979;28;20083;-69
2022/09/29 10:37:47;;;;;;;0.75;0.75;;;13.10;94.70;;;;;;5058358;28;20091;-69
2022/09/29 10:40:20;;;;;;;3.00;1.85;;;13.10;94.70;;;;;;5060483;28;20445;-68
2022/09/29 10:42:48;;;;;;;3.65;2.20;;;13.10;94.70;;;;;;5059599;28;20036;-69
2022/09/29 10:45:20;;;;;;;3.95;2.40;;;13.20;94.70;;;;;;5059257;28;20029;-68
2022/09/29 10:47:48;;;;;;;4.28;2.83;;;13.30;94.70;;;;;;5058354;28;20033;-68
2022/09/29 10:50:19;;;;;;;4.75;2.53;;;13.30;94.80;;;;;;5061034;28;20037;-68
2022/09/29 10:52:56;;;;;;;5.45;2.97;;;13.40;94.80;;;;;;5060691;28;20095;-69
2022/09/29 10:55:28;;;;;;;1.38;1.10;;;13.50;94.60;;;;;;5059630;28;20112;-69
2022/09/29 10:58:00;;;;;;;1.20;1.08;;;13.60;94.50;;;;;;5057693;28;20044;-69
2022/09/29 11:00:38;;;;;;;2.30;1.27;;;13.70;94.50;;;;;;5056667;28;20099;-69
2022/09/29 11:03:27;;;;;;;3.53;2.03;;;13.70;94.40;;;;;;5057097;28;20025;-69
2022/09/29 11:06:00;;;;;;;2.88;1.35;;;13.80;94.40;;;;;;5058741;28;20379;-68
2022/09/29 11:08:26;;;;;;;;;;;13.80;94.30;;;;;;5055055;28;20086;-69
2022/09/29 11:11:23;;;;;;;2.33;1.60;;;13.90;94.10;;;;;;5058639;28;19912;-69
2022/09/29 11:13:51;;;;;;;3.63;1.58;;;14.00;94.00;;;;;;5060456;28;20083;-69
2022/09/29 11:16:25;;;;;;;2.10;1.20;;;14.00;94.00;;;;;;5061562;28;20039;-69
2022/09/29 11:18:54;;;;;;;1.30;1.02;;;14.00;94.00;;;;;;5058147;28;20052;-68
2022/09/29 11:21:22;;;;;;;3.03;1.38;;;14.10;93.80;;;;;;5059387;28;20048;-69
2022/09/29 11:24:06;;;;;;;1.13;1.02;;;14.20;93.70;;;;;;5059419;28;20115;-68
2022/09/29 11:26:45;;;;;;;1.08;0.90;;;14.30;93.60;;;;;;5057559;28;20029;-69
2022/09/29 11:29:22;;;;;;;1.05;0.93;;;14.30;93.50;;;;;;5053871;28;20024;-69
2022/09/29 11:31:55;;;;;;;3.17;1.17;;;14.40;93.50;;;;;;5054371;28;20051;-69
2022/09/29 11:34:48;;;;;;;2.17;1.50;;;14.40;93.40;;;;;;5053457;28;20025;-68
2022/09/29 11:37:43;;;;;;;2.67;1.45;;;14.50;93.40;;;;;;5054229;28;20036;-69
2022/09/29 11:40:34;;;;;;;0.30;0.30;;;14.50;93.40;;;;;;5053458;28;20380;-69
2022/09/29 11:43:14;;;;;;;2.22;1.30;;;14.60;93.60;;;;;;5054639;28;20089;-68
2022/09/29 11:46:12;;;;;;;4.65;1.30;;;14.60;93.40;;;;;;5053943;28;20082;-69
2022/09/29 11:49:02;;;;;;;2.60;1.35;;;14.70;93.10;;;;;;5041492;28;20036;-69
2022/09/29 11:51:56;;;;;;;1.85;1.25;;;14.80;92.90;;;;;;5053938;28;20047;-69
2022/09/29 11:54:40;;;;;;;5.28;1.38;;;14.90;92.80;;;;;;5052615;28;20041;-69
2022/09/29 11:57:42;;;;;;;1.73;1.23;;;15.10;92.70;;;;;;5054048;28;20040;-69
2022/09/29 12:00:10;;;;;;;1.88;1.20;;;15.20;92.70;;;;;;5053737;28;20053;-69
2022/09/29 12:02:55;;;;;;;0.60;0.60;;;15.30;92.50;;;;;;5052680;28;20025;-69
2022/09/29 12:05:21;;;;;;;3.55;0.68;;;15.40;92.20;;;;;;5053819;28;20033;-68
2022/09/29 12:08:09;;;;;;;5.60;0.80;;;15.50;92.10;;;;;;5052963;28;20460;-68
2022/09/29 12:10:56;;;;;;;1.30;0.60;;;15.60;92.00;;;;;;5053757;28;20064;-69
2022/09/29 12:13:40;;;;;;;1.15;0.60;;;15.70;91.70;;;;;;5053491;28;20068;-69
2022/09/29 12:16:15;;;;;;;1.55;0.95;;;15.80;91.40;;;;;;5052900;28;20057;-69
2022/09/29 12:18:50;;;;;;;0.40;0.40;;;15.90;91.30;;;;;;5053526;28;20040;-69
2022/09/29 12:21:23;;;;;;;2.83;0.98;;;15.90;91.00;;;;;;5053365;28;20051;-73
2022/09/29 12:23:49;;;;;;;1.85;0.90;;;16.00;91.00;;;;;;5053571;28;20032;-72
2022/09/29 12:26:19;;;;;;;0.65;0.65;;;16.00;91.20;;;;;;5053470;28;20041;-72
2022/09/29 12:28:51;;;;;;;3.60;0.88;;;16.10;91.10;;;;;;5052894;28;20033;-72
2022/09/29 12:31:32;;;;;;;2.10;0.88;;;16.10;91.20;;;;;;5053287;28;20400;-72
2022/09/29 12:34:15;;;;;;;3.03;0.80;;;16.20;91.00;;;;;;5053156;28;20537;-72
2022/09/29 12:37:02;;;;;;;2.47;0.60;;;16.20;90.90;;;;;;5052730;28;20434;-70
2022/09/29 12:39:43;;;;;;;3.60;0.50;;;16.20;90.60;;;;;;5053303;28;20099;-70
2022/09/29 12:42:30;;;;;;;3.30;0.63;;;16.30;90.50;;;;;;5056551;28;20033;-69
2022/09/29 12:45:15;;;;;;;1.55;0.55;;;16.30;90.10;;;;;;5057549;28;20036;-70
2022/09/29 12:48:21;;;;;;;0.75;0.65;;;16.30;90.00;;;;;;5057030;28;20025;-70
2022/09/29 12:51:00;;;;;;;1.30;0.57;;;16.40;90.80;;;;;;5036462;28;20033;-73
2022/09/29 12:53:50;;;;;;;0.85;0.57;;;16.40;90.90;;;;;;5037186;28;20137;-73
2022/09/29 12:56:24;;;;;;;0.50;0.50;;;16.40;90.70;;;;;;5037229;28;20033;-73
2022/09/29 12:59:16;;;;;;;0.45;0.32;;;16.40;91.00;;;;;;5036374;28;20037;-73
2022/09/29 13:01:41;;;;;;;1.65;0.68;;;16.40;91.20;;;;;;5036905;28;20064;-73
2022/09/29 13:04:32;;;;;;;2.13;0.60;;;16.40;90.90;;;;;;5036267;28;20033;-73
2022/09/29 13:07:22;;;;;;;0.47;0.47;;;16.50;90.40;;;;;;5037054;28;20026;-73
2022/09/29 13:10:02;;;;;;;1.80;0.80;;;16.50;90.00;;;;;;5037196;28;20033;-73